sensor_id;sensor_type;location;lat;lon;timestamp;temperature;humidity
72355;SHT30;60314;55.040;73.076;2022-10-15T00:00:48;1.54;65.31
72355;SHT30;60314;55.040;73.076;2022-10-15T00:03:15;1.68;65.69
72355;SHT30;60314;55.040;73.076;2022-10-15T00:05:52;1.71;65.15
72355;SHT30;60314;55.040;73.076;2022-10-15T00:08:18;1.63;65.48
72355;SHT30;60314;55.040;73.076;2022-10-15T00:10:45;1.61;65.48
72355;SHT30;60314;55.040;73.076;2022-10-15T00:13:11;1.42;65.42
72355;SHT30;60314;55.040;73.076;2022-10-15T00:15:38;1.39;65.18
72355;SHT30;60314;55.040;73.076;2022-10-15T00:18:07;1.42;65.49
72355;SHT30;60314;55.040;73.076;2022-10-15T00:20:34;1.35;65.82
72355;SHT30;60314;55.040;73.076;2022-10-15T00:23:00;1.33;65.78
72355;SHT30;60314;55.040;73.076;2022-10-15T00:25:27;1.43;65.64
72355;SHT30;60314;55.040;73.076;2022-10-15T00:27:53;1.42;65.23
72355;SHT30;60314;55.040;73.076;2022-10-15T00:30:25;1.33;65.51
72355;SHT30;60314;55.040;73.076;2022-10-15T00:32:51;1.27;65.50
72355;SHT30;60314;55.040;73.076;2022-10-15T00:35:18;1.25;65.67
72355;SHT30;60314;55.040;73.076;2022-10-15T00:37:44;1.15;65.86
72355;SHT30;60314;55.040;73.076;2022-10-15T00:40:12;1.05;66.37
72355;SHT30;60314;55.040;73.076;2022-10-15T00:42:44;1.17;68.93
72355;SHT30;60314;55.040;73.076;2022-10-15T00:45:14;1.30;67.83
72355;SHT30;60314;55.040;73.076;2022-10-15T00:47:47;1.42;67.44
72355;SHT30;60314;55.040;73.076;2022-10-15T00:50:19;1.36;66.94
72355;SHT30;60314;55.040;73.076;2022-10-15T00:52:59;1.27;66.89
72355;SHT30;60314;55.040;73.076;2022-10-15T00:55:33;1.29;67.81
72355;SHT30;60314;55.040;73.076;2022-10-15T00:58:09;1.32;67.76
72355;SHT30;60314;55.040;73.076;2022-10-15T01:00:36;1.13;67.18
72355;SHT30;60314;55.040;73.076;2022-10-15T01:03:03;1.12;67.23
72355;SHT30;60314;55.040;73.076;2022-10-15T01:05:30;1.02;68.06
72355;SHT30;60314;55.040;73.076;2022-10-15T01:07:56;0.99;67.57
72355;SHT30;60314;55.040;73.076;2022-10-15T01:10:27;0.88;67.19
72355;SHT30;60314;55.040;73.076;2022-10-15T01:15:50;0.76;66.55
72355;SHT30;60314;55.040;73.076;2022-10-15T01:18:31;0.71;67.06
72355;SHT30;60314;55.040;73.076;2022-10-15T01:24:20;0.82;68.52
72355;SHT30;60314;55.040;73.076;2022-10-15T01:35:47;1.29;69.12
72355;SHT30;60314;55.040;73.076;2022-10-15T01:41:30;1.48;70.36
72355;SHT30;60314;55.040;73.076;2022-10-15T01:47:12;1.79;68.61
72355;SHT30;60314;55.040;73.076;2022-10-15T01:49:44;1.89;68.93
72355;SHT30;60314;55.040;73.076;2022-10-15T01:52:20;1.97;69.37
72355;SHT30;60314;55.040;73.076;2022-10-15T01:54:49;1.99;69.79
72355;SHT30;60314;55.040;73.076;2022-10-15T01:57:18;2.11;69.82
72355;SHT30;60314;55.040;73.076;2022-10-15T01:59:45;2.24;69.85
72355;SHT30;60314;55.040;73.076;2022-10-15T02:02:12;2.42;68.65
72355;SHT30;60314;55.040;73.076;2022-10-15T02:04:39;2.57;68.23
72355;SHT30;60314;55.040;73.076;2022-10-15T02:07:08;2.72;68.81
72355;SHT30;60314;55.040;73.076;2022-10-15T02:09:56;2.76;69.23
72355;SHT30;60314;55.040;73.076;2022-10-15T02:15:16;3.07;70.00
72355;SHT30;60314;55.040;73.076;2022-10-15T02:17:56;3.18;70.03
72355;SHT30;60314;55.040;73.076;2022-10-15T02:20:39;3.31;68.96
72355;SHT30;60314;55.040;73.076;2022-10-15T02:26:07;3.45;68.84
72355;SHT30;60314;55.040;73.076;2022-10-15T02:28:38;3.58;68.83
72355;SHT30;60314;55.040;73.076;2022-10-15T02:31:09;3.61;68.53
72355;SHT30;60314;55.040;73.076;2022-10-15T02:33:38;3.69;68.20
72355;SHT30;60314;55.040;73.076;2022-10-15T02:36:06;3.75;68.46
72355;SHT30;60314;55.040;73.076;2022-10-15T02:38:34;3.82;68.16
72355;SHT30;60314;55.040;73.076;2022-10-15T02:41:02;3.94;67.64
72355;SHT30;60314;55.040;73.076;2022-10-15T02:43:29;4.00;67.77
72355;SHT30;60314;55.040;73.076;2022-10-15T02:45:55;4.06;67.15
72355;SHT30;60314;55.040;73.076;2022-10-15T02:48:22;4.13;67.00
72355;SHT30;60314;55.040;73.076;2022-10-15T02:50:49;4.20;67.16
72355;SHT30;60314;55.040;73.076;2022-10-15T02:53:25;4.25;67.07
72355;SHT30;60314;55.040;73.076;2022-10-15T02:55:52;4.36;66.57
72355;SHT30;60314;55.040;73.076;2022-10-15T02:58:18;4.43;67.05
72355;SHT30;60314;55.040;73.076;2022-10-15T03:00:45;4.50;66.47
72355;SHT30;60314;55.040;73.076;2022-10-15T03:03:12;4.57;66.71
72355;SHT30;60314;55.040;73.076;2022-10-15T03:05:39;4.62;66.58
72355;SHT30;60314;55.040;73.076;2022-10-15T03:08:05;4.71;67.02
72355;SHT30;60314;55.040;73.076;2022-10-15T03:10:32;4.79;66.95
72355;SHT30;60314;55.040;73.076;2022-10-15T03:13:03;4.84;66.72
72355;SHT30;60314;55.040;73.076;2022-10-15T03:15:32;4.95;66.72
72355;SHT30;60314;55.040;73.076;2022-10-15T03:17:59;5.06;66.69
72355;SHT30;60314;55.040;73.076;2022-10-15T03:20:26;5.12;66.36
72355;SHT30;60314;55.040;73.076;2022-10-15T03:22:58;5.22;66.53
72355;SHT30;60314;55.040;73.076;2022-10-15T03:25:24;5.30;66.64
72355;SHT30;60314;55.040;73.076;2022-10-15T03:27:59;5.39;66.51
72355;SHT30;60314;55.040;73.076;2022-10-15T03:30:34;5.50;66.80
72355;SHT30;60314;55.040;73.076;2022-10-15T03:33:01;5.58;66.47
72355;SHT30;60314;55.040;73.076;2022-10-15T03:35:33;5.67;66.36
72355;SHT30;60314;55.040;73.076;2022-10-15T03:38:05;5.78;65.67
72355;SHT30;60314;55.040;73.076;2022-10-15T03:40:34;5.83;66.24
72355;SHT30;60314;55.040;73.076;2022-10-15T03:43:14;5.95;66.19
72355;SHT30;60314;55.040;73.076;2022-10-15T03:45:41;6.04;65.63
72355;SHT30;60314;55.040;73.076;2022-10-15T03:48:18;6.15;65.34
72355;SHT30;60314;55.040;73.076;2022-10-15T03:50:45;6.25;65.14
72355;SHT30;60314;55.040;73.076;2022-10-15T03:53:13;6.36;65.23
72355;SHT30;60314;55.040;73.076;2022-10-15T03:55:40;6.43;64.93
72355;SHT30;60314;55.040;73.076;2022-10-15T03:58:17;6.56;64.55
72355;SHT30;60314;55.040;73.076;2022-10-15T04:01:10;6.69;65.99
72355;SHT30;60314;55.040;73.076;2022-10-15T04:03:40;6.77;64.90
72355;SHT30;60314;55.040;73.076;2022-10-15T04:06:08;6.89;64.35
72355;SHT30;60314;55.040;73.076;2022-10-15T04:08:35;7.00;64.23
72355;SHT30;60314;55.040;73.076;2022-10-15T04:11:17;7.12;63.44
72355;SHT30;60314;55.040;73.076;2022-10-15T04:13:47;7.27;64.60
72355;SHT30;60314;55.040;73.076;2022-10-15T04:16:15;7.41;64.55
72355;SHT30;60314;55.040;73.076;2022-10-15T04:18:51;7.51;63.93
72355;SHT30;60314;55.040;73.076;2022-10-15T04:21:18;7.59;64.40
72355;SHT30;60314;55.040;73.076;2022-10-15T04:23:49;7.68;64.33
72355;SHT30;60314;55.040;73.076;2022-10-15T04:26:25;7.78;63.37
72355;SHT30;60314;55.040;73.076;2022-10-15T04:29:10;7.85;63.65
72355;SHT30;60314;55.040;73.076;2022-10-15T04:31:37;7.90;63.79
72355;SHT30;60314;55.040;73.076;2022-10-15T04:34:04;7.96;64.24
72355;SHT30;60314;55.040;73.076;2022-10-15T04:36:31;8.09;62.75
72355;SHT30;60314;55.040;73.076;2022-10-15T04:39:04;8.17;63.71
72355;SHT30;60314;55.040;73.076;2022-10-15T04:41:42;8.31;62.23
72355;SHT30;60314;55.040;73.076;2022-10-15T04:44:29;8.37;63.42
72355;SHT30;60314;55.040;73.076;2022-10-15T04:46:57;8.50;64.23
72355;SHT30;60314;55.040;73.076;2022-10-15T04:49:29;8.61;64.21
72355;SHT30;60314;55.040;73.076;2022-10-15T04:52:00;8.71;63.80
72355;SHT30;60314;55.040;73.076;2022-10-15T04:54:39;8.82;63.49
72355;SHT30;60314;55.040;73.076;2022-10-15T04:57:06;8.93;63.71
72355;SHT30;60314;55.040;73.076;2022-10-15T04:59:34;9.01;63.37
72355;SHT30;60314;55.040;73.076;2022-10-15T05:02:27;9.16;64.14
72355;SHT30;60314;55.040;73.076;2022-10-15T05:05:08;9.23;63.78
72355;SHT30;60314;55.040;73.076;2022-10-15T05:07:42;9.29;63.79
72355;SHT30;60314;55.040;73.076;2022-10-15T05:10:10;9.39;62.33
72355;SHT30;60314;55.040;73.076;2022-10-15T05:12:36;9.50;63.14
72355;SHT30;60314;55.040;73.076;2022-10-15T05:15:05;9.57;63.12
72355;SHT30;60314;55.040;73.076;2022-10-15T05:17:32;9.70;63.15
72355;SHT30;60314;55.040;73.076;2022-10-15T05:19:59;9.75;62.59
72355;SHT30;60314;55.040;73.076;2022-10-15T05:22:32;9.85;62.52
72355;SHT30;60314;55.040;73.076;2022-10-15T05:25:01;9.94;62.53
72355;SHT30;60314;55.040;73.076;2022-10-15T05:27:32;10.05;63.41
72355;SHT30;60314;55.040;73.076;2022-10-15T05:29:59;10.12;63.39
72355;SHT30;60314;55.040;73.076;2022-10-15T05:32:37;10.22;61.96
72355;SHT30;60314;55.040;73.076;2022-10-15T05:35:08;10.31;62.59
72355;SHT30;60314;55.040;73.076;2022-10-15T05:37:57;10.39;61.67
72355;SHT30;60314;55.040;73.076;2022-10-15T05:40:24;10.52;61.58
72355;SHT30;60314;55.040;73.076;2022-10-15T05:43:05;10.63;62.06
72355;SHT30;60314;55.040;73.076;2022-10-15T05:45:32;10.75;62.68
72355;SHT30;60314;55.040;73.076;2022-10-15T05:48:04;10.83;61.19
72355;SHT30;60314;55.040;73.076;2022-10-15T05:50:30;10.93;60.18
72355;SHT30;60314;55.040;73.076;2022-10-15T05:53:03;11.07;61.57
72355;SHT30;60314;55.040;73.076;2022-10-15T05:55:44;11.21;59.98
72355;SHT30;60314;55.040;73.076;2022-10-15T05:58:11;11.28;60.64
72355;SHT30;60314;55.040;73.076;2022-10-15T06:00:37;11.39;60.35
72355;SHT30;60314;55.040;73.076;2022-10-15T06:03:04;11.50;60.87
72355;SHT30;60314;55.040;73.076;2022-10-15T06:05:31;11.62;60.82
72355;SHT30;60314;55.040;73.076;2022-10-15T06:07:58;11.75;61.29
72355;SHT30;60314;55.040;73.076;2022-10-15T06:10:36;11.92;60.08
72355;SHT30;60314;55.040;73.076;2022-10-15T06:13:03;12.06;61.68
72355;SHT30;60314;55.040;73.076;2022-10-15T06:15:31;12.20;59.99
72355;SHT30;60314;55.040;73.076;2022-10-15T06:17:58;12.33;60.08
72355;SHT30;60314;55.040;73.076;2022-10-15T06:20:25;12.47;60.49
72355;SHT30;60314;55.040;73.076;2022-10-15T06:22:56;12.57;59.66
72355;SHT30;60314;55.040;73.076;2022-10-15T06:25:24;12.71;58.78
72355;SHT30;60314;55.040;73.076;2022-10-15T06:27:51;12.84;58.06
72355;SHT30;60314;55.040;73.076;2022-10-15T06:30:18;12.95;58.55
72355;SHT30;60314;55.040;73.076;2022-10-15T06:32:49;13.07;57.88
72355;SHT30;60314;55.040;73.076;2022-10-15T06:35:27;13.18;58.13
72355;SHT30;60314;55.040;73.076;2022-10-15T06:37:59;13.25;57.88
72355;SHT30;60314;55.040;73.076;2022-10-15T06:40:31;13.36;57.23
72355;SHT30;60314;55.040;73.076;2022-10-15T06:43:09;13.43;57.55
72355;SHT30;60314;55.040;73.076;2022-10-15T06:45:38;13.52;56.30
72355;SHT30;60314;55.040;73.076;2022-10-15T06:48:11;13.58;56.16
72355;SHT30;60314;55.040;73.076;2022-10-15T06:50:38;13.67;56.53
72355;SHT30;60314;55.040;73.076;2022-10-15T06:53:05;13.77;56.52
72355;SHT30;60314;55.040;73.076;2022-10-15T06:55:42;13.91;55.88
72355;SHT30;60314;55.040;73.076;2022-10-15T06:58:08;14.20;57.16
72355;SHT30;60314;55.040;73.076;2022-10-15T07:00:35;14.45;55.64
72355;SHT30;60314;55.040;73.076;2022-10-15T07:03:05;14.68;54.85
72355;SHT30;60314;55.040;73.076;2022-10-15T07:05:42;14.88;53.77
72355;SHT30;60314;55.040;73.076;2022-10-15T07:08:09;14.98;53.59
72355;SHT30;60314;55.040;73.076;2022-10-15T07:10:36;15.03;52.54
72355;SHT30;60314;55.040;73.076;2022-10-15T07:13:03;15.12;53.23
72355;SHT30;60314;55.040;73.076;2022-10-15T07:15:29;15.27;51.60
72355;SHT30;60314;55.040;73.076;2022-10-15T07:18:05;15.33;51.01
72355;SHT30;60314;55.040;73.076;2022-10-15T07:20:32;15.43;50.90
72355;SHT30;60314;55.040;73.076;2022-10-15T07:23:00;15.53;50.79
72355;SHT30;60314;55.040;73.076;2022-10-15T07:25:30;15.50;50.21
72355;SHT30;60314;55.040;73.076;2022-10-15T07:27:57;15.44;49.86
72355;SHT30;60314;55.040;73.076;2022-10-15T07:30:29;15.37;50.10
72355;SHT30;60314;55.040;73.076;2022-10-15T07:32:58;15.42;49.95
72355;SHT30;60314;55.040;73.076;2022-10-15T07:35:26;15.49;49.81
72355;SHT30;60314;55.040;73.076;2022-10-15T07:37:53;15.51;48.59
72355;SHT30;60314;55.040;73.076;2022-10-15T07:40:20;15.49;48.87
72355;SHT30;60314;55.040;73.076;2022-10-15T07:42:53;15.49;48.78
72355;SHT30;60314;55.040;73.076;2022-10-15T07:45:21;15.58;48.13
72355;SHT30;60314;55.040;73.076;2022-10-15T07:47:49;15.60;47.52
72355;SHT30;60314;55.040;73.076;2022-10-15T07:50:15;15.55;47.39
72355;SHT30;60314;55.040;73.076;2022-10-15T07:52:43;15.54;47.93
72355;SHT30;60314;55.040;73.076;2022-10-15T07:55:10;15.61;47.58
72355;SHT30;60314;55.040;73.076;2022-10-15T07:57:47;15.67;47.62
72355;SHT30;60314;55.040;73.076;2022-10-15T08:00:14;15.65;46.61
72355;SHT30;60314;55.040;73.076;2022-10-15T08:02:42;15.70;46.19
72355;SHT30;60314;55.040;73.076;2022-10-15T08:05:09;15.81;46.37
72355;SHT30;60314;55.040;73.076;2022-10-15T08:07:36;15.74;45.85
72355;SHT30;60314;55.040;73.076;2022-10-15T08:10:10;15.73;45.23
72355;SHT30;60314;55.040;73.076;2022-10-15T08:12:38;15.70;46.07
72355;SHT30;60314;55.040;73.076;2022-10-15T08:15:05;15.67;46.23
72355;SHT30;60314;55.040;73.076;2022-10-15T08:17:32;15.64;45.58
72355;SHT30;60314;55.040;73.076;2022-10-15T08:20:04;15.70;46.80
72355;SHT30;60314;55.040;73.076;2022-10-15T08:22:32;15.73;46.02
72355;SHT30;60314;55.040;73.076;2022-10-15T08:25:03;15.70;45.84
72355;SHT30;60314;55.040;73.076;2022-10-15T08:27:34;15.68;45.91
72355;SHT30;60314;55.040;73.076;2022-10-15T08:30:03;15.68;45.81
72355;SHT30;60314;55.040;73.076;2022-10-15T08:32:30;15.75;46.31
72355;SHT30;60314;55.040;73.076;2022-10-15T08:34:56;15.77;46.25
72355;SHT30;60314;55.040;73.076;2022-10-15T08:37:23;15.83;47.07
72355;SHT30;60314;55.040;73.076;2022-10-15T08:39:49;15.80;46.20
72355;SHT30;60314;55.040;73.076;2022-10-15T08:42:31;15.80;45.15
72355;SHT30;60314;55.040;73.076;2022-10-15T08:45:20;15.80;45.21
72355;SHT30;60314;55.040;73.076;2022-10-15T08:50:42;15.78;45.43
72355;SHT30;60314;55.040;73.076;2022-10-15T08:53:18;15.75;44.64
72355;SHT30;60314;55.040;73.076;2022-10-15T08:55:49;15.74;45.17
72355;SHT30;60314;55.040;73.076;2022-10-15T08:58:42;15.74;45.17
72355;SHT30;60314;55.040;73.076;2022-10-15T09:01:57;15.75;44.39
72355;SHT30;60314;55.040;73.076;2022-10-15T09:04:52;15.71;44.95
72355;SHT30;60314;55.040;73.076;2022-10-15T09:07:44;15.74;45.21
72355;SHT30;60314;55.040;73.076;2022-10-15T09:10:16;15.75;43.95
72355;SHT30;60314;55.040;73.076;2022-10-15T09:13:08;15.70;44.57
72355;SHT30;60314;55.040;73.076;2022-10-15T09:15:55;15.75;44.79
72355;SHT30;60314;55.040;73.076;2022-10-15T09:18:26;15.80;44.82
72355;SHT30;60314;55.040;73.076;2022-10-15T09:20:56;15.75;45.72
72355;SHT30;60314;55.040;73.076;2022-10-15T09:23:26;15.67;44.85
72355;SHT30;60314;55.040;73.076;2022-10-15T09:26:03;15.60;45.25
72355;SHT30;60314;55.040;73.076;2022-10-15T09:29:02;15.51;45.21
72355;SHT30;60314;55.040;73.076;2022-10-15T09:32:06;15.50;46.13
72355;SHT30;60314;55.040;73.076;2022-10-15T09:41:23;15.34;43.94
72355;SHT30;60314;55.040;73.076;2022-10-15T09:43:54;15.32;44.18
72355;SHT30;60314;55.040;73.076;2022-10-15T09:46:27;15.34;44.75
72355;SHT30;60314;55.040;73.076;2022-10-15T09:49:07;15.36;44.72
72355;SHT30;60314;55.040;73.076;2022-10-15T09:51:43;15.39;44.78
72355;SHT30;60314;55.040;73.076;2022-10-15T09:56:57;15.39;44.31
72355;SHT30;60314;55.040;73.076;2022-10-15T09:59:24;15.44;45.12
72355;SHT30;60314;55.040;73.076;2022-10-15T10:02:03;15.47;45.10
72355;SHT30;60314;55.040;73.076;2022-10-15T10:04:38;15.50;44.83
72355;SHT30;60314;55.040;73.076;2022-10-15T10:07:06;15.53;44.97
72355;SHT30;60314;55.040;73.076;2022-10-15T10:09:38;15.49;44.43
72355;SHT30;60314;55.040;73.076;2022-10-15T10:12:25;15.53;44.73
72355;SHT30;60314;55.040;73.076;2022-10-15T10:14:55;15.50;44.94
72355;SHT30;60314;55.040;73.076;2022-10-15T10:17:25;15.51;43.99
72355;SHT30;60314;55.040;73.076;2022-10-15T10:20:15;15.50;43.32
72355;SHT30;60314;55.040;73.076;2022-10-15T10:22:47;15.51;43.12
72355;SHT30;60314;55.040;73.076;2022-10-15T10:25:39;15.51;43.44
72355;SHT30;60314;55.040;73.076;2022-10-15T10:33:12;15.33;42.95
72355;SHT30;60314;55.040;73.076;2022-10-15T10:35:44;15.29;43.28
72355;SHT30;60314;55.040;73.076;2022-10-15T10:38:35;15.22;43.15
72355;SHT30;60314;55.040;73.076;2022-10-15T10:41:04;15.12;43.15
72355;SHT30;60314;55.040;73.076;2022-10-15T10:43:35;15.04;44.14
72355;SHT30;60314;55.040;73.076;2022-10-15T10:46:24;14.96;44.35
72355;SHT30;60314;55.040;73.076;2022-10-15T10:48:52;14.88;44.30
72355;SHT30;60314;55.040;73.076;2022-10-15T10:51:28;14.82;44.58
72355;SHT30;60314;55.040;73.076;2022-10-15T10:54:07;14.79;45.29
72355;SHT30;60314;55.040;73.076;2022-10-15T10:56:42;14.72;45.50
72355;SHT30;60314;55.040;73.076;2022-10-15T10:59:18;14.67;45.57
72355;SHT30;60314;55.040;73.076;2022-10-15T11:01:51;14.60;46.04
72355;SHT30;60314;55.040;73.076;2022-10-15T11:04:29;14.52;46.25
72355;SHT30;60314;55.040;73.076;2022-10-15T11:09:47;14.37;46.71
72355;SHT30;60314;55.040;73.076;2022-10-15T11:15:38;14.27;46.86
72355;SHT30;60314;55.040;73.076;2022-10-15T11:24:20;13.99;47.66
72355;SHT30;60314;55.040;73.076;2022-10-15T11:35:07;13.80;48.27
72355;SHT30;60314;55.040;73.076;2022-10-15T11:40:20;13.65;48.43
72355;SHT30;60314;55.040;73.076;2022-10-15T11:42:59;13.58;48.65
72355;SHT30;60314;55.040;73.076;2022-10-15T11:46:05;13.45;48.93
72355;SHT30;60314;55.040;73.076;2022-10-15T11:48:39;13.36;49.00
72355;SHT30;60314;55.040;73.076;2022-10-15T11:51:33;13.32;49.05
72355;SHT30;60314;55.040;73.076;2022-10-15T11:56:43;13.19;49.41
72355;SHT30;60314;55.040;73.076;2022-10-15T12:02:33;13.11;49.73
72355;SHT30;60314;55.040;73.076;2022-10-15T12:05:24;12.98;50.44
72355;SHT30;60314;55.040;73.076;2022-10-15T12:07:52;12.88;50.27
72355;SHT30;60314;55.040;73.076;2022-10-15T12:13:25;12.80;50.37
72355;SHT30;60314;55.040;73.076;2022-10-15T12:16:05;12.77;50.50
72355;SHT30;60314;55.040;73.076;2022-10-15T12:18:54;12.71;50.47
72355;SHT30;60314;55.040;73.076;2022-10-15T12:27:23;12.53;50.78
72355;SHT30;60314;55.040;73.076;2022-10-15T12:32:44;12.46;51.08
72355;SHT30;60314;55.040;73.076;2022-10-15T12:35:24;12.44;51.40
72355;SHT30;60314;55.040;73.076;2022-10-15T12:38:09;12.40;51.38
72355;SHT30;60314;55.040;73.076;2022-10-15T12:40:38;12.39;51.47
72355;SHT30;60314;55.040;73.076;2022-10-15T12:43:14;12.36;51.68
72355;SHT30;60314;55.040;73.076;2022-10-15T12:45:55;12.32;51.69
72355;SHT30;60314;55.040;73.076;2022-10-15T12:53:48;12.25;51.91
72355;SHT30;60314;55.040;73.076;2022-10-15T12:58:54;12.16;52.14
72355;SHT30;60314;55.040;73.076;2022-10-15T13:03:58;12.10;52.52
72355;SHT30;60314;55.040;73.076;2022-10-15T13:06:35;12.08;52.54
72355;SHT30;60314;55.040;73.076;2022-10-15T13:11:52;12.02;52.56
72355;SHT30;60314;55.040;73.076;2022-10-15T13:16:47;12.00;52.69
72355;SHT30;60314;55.040;73.076;2022-10-15T13:19:27;11.99;52.74
72355;SHT30;60314;55.040;73.076;2022-10-15T13:21:59;11.96;52.98
72355;SHT30;60314;55.040;73.076;2022-10-15T13:24:40;11.92;53.25
72355;SHT30;60314;55.040;73.076;2022-10-15T13:30:13;11.88;53.55
72355;SHT30;60314;55.040;73.076;2022-10-15T13:32:54;11.86;53.68
72355;SHT30;60314;55.040;73.076;2022-10-15T13:35:21;11.86;53.53
72355;SHT30;60314;55.040;73.076;2022-10-15T13:37:58;11.85;53.62
72355;SHT30;60314;55.040;73.076;2022-10-15T13:40:27;11.83;53.75
72355;SHT30;60314;55.040;73.076;2022-10-15T13:43:14;11.78;53.68
72355;SHT30;60314;55.040;73.076;2022-10-15T13:45:52;11.76;53.54
72355;SHT30;60314;55.040;73.076;2022-10-15T13:48:31;11.68;53.60
72355;SHT30;60314;55.040;73.076;2022-10-15T13:51:03;11.67;53.69
72355;SHT30;60314;55.040;73.076;2022-10-15T13:53:39;11.62;53.78
72355;SHT30;60314;55.040;73.076;2022-10-15T13:56:28;11.57;54.01
72355;SHT30;60314;55.040;73.076;2022-10-15T13:58:57;11.50;54.22
72355;SHT30;60314;55.040;73.076;2022-10-15T14:01:25;11.51;54.37
72355;SHT30;60314;55.040;73.076;2022-10-15T14:04:03;11.50;54.49
72355;SHT30;60314;55.040;73.076;2022-10-15T14:06:32;11.50;54.65
72355;SHT30;60314;55.040;73.076;2022-10-15T14:09:33;11.48;54.72
72355;SHT30;60314;55.040;73.076;2022-10-15T14:12:03;11.41;54.88
72355;SHT30;60314;55.040;73.076;2022-10-15T14:17:20;11.37;55.10
72355;SHT30;60314;55.040;73.076;2022-10-15T14:19:55;11.37;55.22
72355;SHT30;60314;55.040;73.076;2022-10-15T14:22:25;11.34;55.19
72355;SHT30;60314;55.040;73.076;2022-10-15T14:24:54;11.31;55.47
72355;SHT30;60314;55.040;73.076;2022-10-15T14:27:23;11.26;55.59
72355;SHT30;60314;55.040;73.076;2022-10-15T14:29:59;11.23;55.56
72355;SHT30;60314;55.040;73.076;2022-10-15T14:32:44;11.17;55.73
72355;SHT30;60314;55.040;73.076;2022-10-15T14:40:29;10.96;56.12
72355;SHT30;60314;55.040;73.076;2022-10-15T14:43:31;10.84;56.21
72355;SHT30;60314;55.040;73.076;2022-10-15T14:45:59;10.83;56.44
72355;SHT30;60314;55.040;73.076;2022-10-15T14:48:35;10.72;56.03
72355;SHT30;60314;55.040;73.076;2022-10-15T14:51:07;10.65;56.14
72355;SHT30;60314;55.040;73.076;2022-10-15T14:53:43;10.59;56.27
72355;SHT30;60314;55.040;73.076;2022-10-15T14:56:16;10.57;55.86
72355;SHT30;60314;55.040;73.076;2022-10-15T14:58:50;10.52;56.14
72355;SHT30;60314;55.040;73.076;2022-10-15T15:01:19;10.46;56.33
72355;SHT30;60314;55.040;73.076;2022-10-15T15:03:51;10.41;56.33
72355;SHT30;60314;55.040;73.076;2022-10-15T15:06:18;10.35;56.96
72355;SHT30;60314;55.040;73.076;2022-10-15T15:08:45;10.32;56.55
72355;SHT30;60314;55.040;73.076;2022-10-15T15:11:20;10.25;56.53
72355;SHT30;60314;55.040;73.076;2022-10-15T15:13:47;10.18;57.12
72355;SHT30;60314;55.040;73.076;2022-10-15T15:16:17;10.18;57.26
72355;SHT30;60314;55.040;73.076;2022-10-15T15:18:44;10.25;58.00
72355;SHT30;60314;55.040;73.076;2022-10-15T15:21:22;10.24;58.07
72355;SHT30;60314;55.040;73.076;2022-10-15T15:23:49;10.25;57.97
72355;SHT30;60314;55.040;73.076;2022-10-15T15:26:21;10.25;58.29
72355;SHT30;60314;55.040;73.076;2022-10-15T15:28:49;10.26;58.66
72355;SHT30;60314;55.040;73.076;2022-10-15T15:31:16;10.28;59.11
72355;SHT30;60314;55.040;73.076;2022-10-15T15:33:43;10.26;59.10
72355;SHT30;60314;55.040;73.076;2022-10-15T15:36:13;10.28;59.62
72355;SHT30;60314;55.040;73.076;2022-10-15T15:38:39;10.22;59.29
72355;SHT30;60314;55.040;73.076;2022-10-15T15:41:20;10.25;59.30
72355;SHT30;60314;55.040;73.076;2022-10-15T15:43:47;10.31;59.54
72355;SHT30;60314;55.040;73.076;2022-10-15T15:46:14;10.25;59.44
72355;SHT30;60314;55.040;73.076;2022-10-15T15:48:41;10.25;60.08
72355;SHT30;60314;55.040;73.076;2022-10-15T15:51:23;10.21;59.66
72355;SHT30;60314;55.040;73.076;2022-10-15T15:53:51;10.14;59.75
72355;SHT30;60314;55.040;73.076;2022-10-15T15:56:17;10.09;60.07
72355;SHT30;60314;55.040;73.076;2022-10-15T15:58:44;10.08;59.94
72355;SHT30;60314;55.040;73.076;2022-10-15T16:01:11;10.05;60.80
72355;SHT30;60314;55.040;73.076;2022-10-15T16:03:37;10.05;60.94
72355;SHT30;60314;55.040;73.076;2022-10-15T16:06:05;10.06;61.14
72355;SHT30;60314;55.040;73.076;2022-10-15T16:08:36;10.02;61.72
72355;SHT30;60314;55.040;73.076;2022-10-15T16:11:13;9.98;62.62
72355;SHT30;60314;55.040;73.076;2022-10-15T16:13:40;9.98;62.44
72355;SHT30;60314;55.040;73.076;2022-10-15T16:16:08;10.02;62.09
72355;SHT30;60314;55.040;73.076;2022-10-15T16:18:35;10.05;61.68
72355;SHT30;60314;55.040;73.076;2022-10-15T16:21:03;10.05;62.82
72355;SHT30;60314;55.040;73.076;2022-10-15T16:23:30;10.08;62.81
72355;SHT30;60314;55.040;73.076;2022-10-15T16:25:56;10.08;63.37
72355;SHT30;60314;55.040;73.076;2022-10-15T16:28:23;10.02;63.32
72355;SHT30;60314;55.040;73.076;2022-10-15T16:30:49;10.02;63.18
72355;SHT30;60314;55.040;73.076;2022-10-15T16:33:25;9.99;63.49
72355;SHT30;60314;55.040;73.076;2022-10-15T16:35:52;9.97;63.53
72355;SHT30;60314;55.040;73.076;2022-10-15T16:38:21;9.98;63.53
72355;SHT30;60314;55.040;73.076;2022-10-15T16:40:47;10.02;63.75
72355;SHT30;60314;55.040;73.076;2022-10-15T16:43:17;10.04;63.76
72355;SHT30;60314;55.040;73.076;2022-10-15T16:45:53;10.05;64.33
72355;SHT30;60314;55.040;73.076;2022-10-15T16:48:31;10.08;63.68
72355;SHT30;60314;55.040;73.076;2022-10-15T16:51:02;10.05;63.72
72355;SHT30;60314;55.040;73.076;2022-10-15T16:53:31;10.02;64.43
72355;SHT30;60314;55.040;73.076;2022-10-15T16:56:02;9.99;63.86
72355;SHT30;60314;55.040;73.076;2022-10-15T16:58:30;9.94;64.03
72355;SHT30;60314;55.040;73.076;2022-10-15T17:00:58;9.94;63.44
72355;SHT30;60314;55.040;73.076;2022-10-15T17:03:26;9.94;63.87
72355;SHT30;60314;55.040;73.076;2022-10-15T17:05:58;9.87;64.62
72355;SHT30;60314;55.040;73.076;2022-10-15T17:08:36;9.90;64.26
72355;SHT30;60314;55.040;73.076;2022-10-15T17:11:32;9.88;64.60
72355;SHT30;60314;55.040;73.076;2022-10-15T17:14:04;9.83;64.79
72355;SHT30;60314;55.040;73.076;2022-10-15T17:16:33;9.78;64.93
72355;SHT30;60314;55.040;73.076;2022-10-15T17:19:02;9.78;65.08
72355;SHT30;60314;55.040;73.076;2022-10-15T17:21:34;9.80;64.79
72355;SHT30;60314;55.040;73.076;2022-10-15T17:24:04;9.81;64.70
72355;SHT30;60314;55.040;73.076;2022-10-15T17:26:33;9.84;64.46
72355;SHT30;60314;55.040;73.076;2022-10-15T17:29:16;9.88;64.99
72355;SHT30;60314;55.040;73.076;2022-10-15T17:31:46;9.87;64.60
72355;SHT30;60314;55.040;73.076;2022-10-15T17:34:14;9.90;64.88
72355;SHT30;60314;55.040;73.076;2022-10-15T17:36:45;9.88;65.97
72355;SHT30;60314;55.040;73.076;2022-10-15T17:39:15;9.83;66.12
72355;SHT30;60314;55.040;73.076;2022-10-15T17:41:42;9.80;66.20
72355;SHT30;60314;55.040;73.076;2022-10-15T17:44:09;9.80;66.09
72355;SHT30;60314;55.040;73.076;2022-10-15T17:46:37;9.87;66.29